Big Bear Station Historical Data
Daily Summary for May 29, 2019 Units:  English    Metric   Both
Next Day »
Daily Weekly Monthly Yearly Custom
  High: Low: Average:
Temperature: 67.3 °F 34.2 °F 50.1 °F
Dew Point: 43.1 °F 32.4 °F 37.1 °F
Humidity: 94% 36% 65%
Wind Speed: 8.3mph 0mph 1.4mph
Wind Gust: -999mph - -
Wind- - SW
Pressure: 23.47 in 23.42 in -
Precipitation: 0 in    
Historical Graphs
 
 
Tabular Data for May 29, 2019
Time Temperature Dew Point Pressure Wind Wind Speed Wind Gust Humidity Rainfall Rate (Hourly)
00:12 40.5 °F 37.2 °F 23.44 in Calm   -999 mph 88% 0.00 in
00:27 39.9 °F 36.3 °F 23.44 in Calm   -999 mph 87% 0.00 in
00:42 39.6 °F 36.1 °F 23.43 in SSE 2.2 mph -999 mph 87% 0.00 in
00:57 39.2 °F 35.4 °F 23.43 in Calm   -999 mph 86% 0.00 in
01:13 38.7 °F 34.9 °F 23.43 in Calm   -999 mph 86% 0.00 in
01:28 38.3 °F 34.5 °F 23.42 in Calm   -999 mph 86% 0.00 in
01:43 37.8 °F 34 °F 23.42 in Calm   -999 mph 86% 0.00 in
01:58 37.2 °F 33.4 °F 23.42 in Calm   -999 mph 86% 0.00 in
02:13 37.2 °F 34 °F 23.42 in Calm   -999 mph 88% 0.00 in
02:29 36.9 °F 33.7 °F 23.42 in Calm   -999 mph 88% 0.00 in
02:44 36.3 °F 33.1 °F 23.42 in Calm   -999 mph 88% 0.00 in
02:59 36 °F 32.8 °F 23.42 in Calm   -999 mph 88% 0.00 in
03:14 35.6 °F 32.7 °F 23.42 in Calm   -999 mph 89% 0.00 in
03:29 35.4 °F 32.5 °F 23.42 in Calm   -999 mph 89% 0.00 in
03:45 35.4 °F 33 °F 23.42 in Calm   -999 mph 91% 0.00 in
04:00 35.1 °F 32.7 °F 23.42 in Calm   -999 mph 91% 0.00 in
04:15 35.1 °F 32.7 °F 23.42 in South 2.2 mph -999 mph 91% 0.00 in
04:30 34.9 °F 32.8 °F 23.42 in Calm   -999 mph 92% 0.00 in
04:45 34.7 °F 32.9 °F 23.42 in Calm   -999 mph 93% 0.00 in
05:01 34.3 °F 32.5 °F 23.42 in Calm   -999 mph 93% 0.00 in
05:16 34.2 °F 32.4 °F 23.42 in Calm   -999 mph 93% 0.00 in
05:31 34.3 °F 32.5 °F 23.42 in Calm   -999 mph 93% 0.00 in
05:46 34.3 °F 32.8 °F 23.42 in Calm   -999 mph 94% 0.00 in
06:01 34.7 °F 33.2 °F 23.42 in Calm   -999 mph 94% 0.00 in
06:17 34.7 °F 32.9 °F 23.42 in Calm   -999 mph 93% 0.00 in
06:32 34.9 °F 33.3 °F 23.43 in Calm   -999 mph 94% 0.00 in
06:47 35.4 °F 33.8 °F 23.43 in Calm   -999 mph 94% 0.00 in
07:02 36.1 °F 34.3 °F 23.43 in Calm   -999 mph 93% 0.00 in
07:18 36.7 °F 35.1 °F 23.43 in Calm   -999 mph 94% 0.00 in
07:33 37.9 °F 36.3 °F 23.43 in Calm   -999 mph 94% 0.00 in
07:48 39.9 °F 38.3 °F 23.43 in Calm   -999 mph 94% 0.00 in
08:03 41.9 °F 38 °F 23.43 in Calm   -999 mph 86% 0.00 in
08:18 44.2 °F 39.4 °F 23.44 in Calm   -999 mph 83% 0.00 in
08:34 45.9 °F 38.8 °F 23.44 in Calm   -999 mph 76% 0.00 in
08:49 47.3 °F 39.4 °F 23.44 in Calm   -999 mph 74% 0.00 in
09:04 49.3 °F 41 °F 23.44 in Calm   -999 mph 73% 0.00 in
09:19 51.8 °F 42.7 °F 23.44 in NW 2.7 mph -999 mph 71% 0.00 in
09:34 53.8 °F 41.5 °F 23.44 in NW 2.7 mph -999 mph 63% 0.00 in
09:50 55.2 °F 38.8 °F 23.44 in NNE 3.2 mph -999 mph 54% 0.00 in
10:05 57.2 °F 39.7 °F 23.44 in NNW 3.7 mph -999 mph 52% 0.00 in
10:20 59.2 °F 40 °F 23.44 in NW 4.2 mph -999 mph 49% 0.00 in
10:36 57.6 °F 40.1 °F 23.44 in NW 3.2 mph -999 mph 52% 0.00 in
10:51 57.4 °F 41.4 °F 23.44 in Calm   -999 mph 55% 0.00 in
11:06 58.3 °F 40.2 °F 23.44 in Calm   -999 mph 51% 0.00 in
11:21 61.9 °F 43.1 °F 23.44 in NW 2.7 mph -999 mph 50% 0.00 in
11:37 63 °F 40.7 °F 23.44 in NE 5.3 mph -999 mph 44% 0.00 in
11:52 63.7 °F 40.2 °F 23.44 in SE 1.7 mph -999 mph 42% 0.00 in
12:07 65.5 °F 41.2 °F 23.44 in NNW 4.7 mph -999 mph 41% 0.00 in
12:22 61.9 °F 40.9 °F 23.44 in NNW 3.7 mph -999 mph 46% 0.00 in
12:38 59.9 °F 40.7 °F 23.45 in North 1.7 mph -999 mph 49% 0.00 in
12:53 59.2 °F 38.4 °F 23.45 in SSE 1.1 mph -999 mph 46% 0.00 in
13:08 63 °F 41.3 °F 23.44 in WNW 2.7 mph -999 mph 45% 0.00 in
13:23 62.2 °F 39.4 °F 23.45 in NW 3.2 mph -999 mph 43% 0.00 in
13:39 65.8 °F 39.5 °F 23.45 in NNW 5.8 mph -999 mph 38% 0.00 in
13:54 66.4 °F 40 °F 23.44 in NNW 2.2 mph -999 mph 38% 0.00 in
14:09 66.4 °F 40 °F 23.44 in SW 2.2 mph -999 mph 38% 0.00 in
14:24 64.2 °F 40 °F 23.44 in NW 5.3 mph -999 mph 41% 0.00 in
14:40 63.9 °F 37.1 °F 23.44 in SSE 3.7 mph -999 mph 37% 0.00 in
14:55 61.9 °F 37.9 °F 23.44 in Calm   -999 mph 41% 0.00 in
15:10 62.6 °F 37.3 °F 23.44 in SSW 3.7 mph -999 mph 39% 0.00 in
15:25 63 °F 37.6 °F 23.44 in SSW 2.7 mph -999 mph 39% 0.00 in
15:40 64.2 °F 37.4 °F 23.44 in ENE 2.2 mph -999 mph 37% 0.00 in
15:56 63.7 °F 37.6 °F 23.43 in South 5.8 mph -999 mph 38% 0.00 in
16:11 63.5 °F 37.4 °F 23.43 in SSW 5.8 mph -999 mph 38% 0.00 in
16:26 65.1 °F 40.2 °F 23.43 in NNE 2.2 mph -999 mph 40% 0.00 in
16:42 67.3 °F 40.1 °F 23.42 in WSW 2.7 mph -999 mph 37% 0.00 in
16:58 67.1 °F 39.3 °F 23.42 in Calm   -999 mph 36% 0.00 in
17:13 66.2 °F 38.5 °F 23.42 in NE 4.2 mph -999 mph 36% 0.00 in
17:28 65.5 °F 39.9 °F 23.42 in NW 2.7 mph -999 mph 39% 0.00 in
17:44 65.5 °F 40.5 °F 23.42 in NW 7.3 mph -999 mph 40% 0.00 in
17:59 64.2 °F 39.4 °F 23.42 in WNW 8.3 mph -999 mph 40% 0.00 in
18:14 64.6 °F 40.4 °F 23.42 in SSW 1.1 mph -999 mph 41% 0.00 in
18:29 61.7 °F 39.6 °F 23.42 in NW 6.3 mph -999 mph 44% 0.00 in
18:44 61.9 °F 39.2 °F 23.42 in Calm   -999 mph 43% 0.00 in
19:00 61 °F 38.3 °F 23.42 in NNW 2.7 mph -999 mph 43% 0.00 in
19:15 59.4 °F 38.6 °F 23.43 in NNW 2.7 mph -999 mph 46% 0.00 in
19:31 55.6 °F 38.2 °F 23.43 in SSW 1.7 mph -999 mph 52% 0.00 in
19:46 53.6 °F 35.4 °F 23.43 in ENE 1.7 mph -999 mph 50% 0.00 in
20:01 51.8 °F 35.7 °F 23.44 in Calm   -999 mph 54% 0.00 in
20:16 50.7 °F 34.7 °F 23.45 in Calm   -999 mph 54% 0.00 in
20:31 49.3 °F 33.8 °F 23.45 in Calm   -999 mph 55% 0.00 in
20:47 48.6 °F 34.1 °F 23.45 in Calm   -999 mph 57% 0.00 in
21:02 48.4 °F 34.3 °F 23.45 in Calm   -999 mph 58% 0.00 in
21:17 47.8 °F 34.6 °F 23.46 in Calm   -999 mph 60% 0.00 in
21:32 47.8 °F 35.4 °F 23.46 in Calm   -999 mph 62% 0.00 in
21:48 47.5 °F 36.3 °F 23.47 in South 1.7 mph -999 mph 65% 0.00 in
22:03 46.9 °F 36.5 °F 23.47 in Calm   -999 mph 67% 0.00 in
22:18 47.1 °F 38.2 °F 23.47 in Calm   -999 mph 71% 0.00 in
22:33 46.2 °F 37.7 °F 23.47 in Calm   -999 mph 72% 0.00 in
22:48 45.5 °F 38.4 °F 23.47 in Calm   -999 mph 76% 0.00 in
23:04 44.4 °F 38.3 °F 23.47 in Calm   -999 mph 79% 0.00 in
23:19 43.7 °F 37.9 °F 23.46 in Calm   -999 mph 80% 0.00 in
23:34 42.8 °F 37.1 °F 23.46 in Calm   -999 mph 80% 0.00 in
23:49 42.1 °F 36.1 °F 23.46 in Calm   -999 mph 79% 0.00 in
Big Bear CA Weather